Time;durP1;ratioP1;P1;durP2;ratioP2;P2;SDS_P1;SDS_P2;PMS_P1;PMS_P2;Temp;Humidity;BMP_temperature;BMP_pressure;BME280_temperature;BME280_humidity;BME280_pressure;Samples;Min_cycle;Max_cycle;Signal;HPM_P1;HPM_P2
2021/08/09 00:01:44;;;;;;;3.00;2.00;;;;;;;16.51;61.06;101203.34;5969930;29;20781;-60
2021/08/09 00:05:06;;;;;;;2.93;1.60;;;;;;;16.38;61.72;101202.81;5967325;29;20693;-60
2021/08/09 00:08:27;;;;;;;3.53;2.07;;;;;;;16.53;61.09;101201.53;5975323;29;20630;-61
2021/08/09 00:11:49;;;;;;;3.97;2.10;;;;;;;16.53;61.07;101206.78;5977546;29;20492;-58
2021/08/09 00:15:11;;;;;;;4.40;2.07;;;;;;;16.71;60.65;101206.28;5979511;29;20240;-60
2021/08/09 00:18:32;;;;;;;2.27;1.90;;;;;;;16.21;62.09;101203.28;5973262;29;20614;-60
2021/08/09 00:21:54;;;;;;;4.13;1.80;;;;;;;16.52;61.04;101208.56;5965974;29;20331;-59
2021/08/09 00:25:15;;;;;;;2.90;2.00;;;;;;;16.30;61.62;101200.41;5978849;29;20239;-58
2021/08/09 00:28:38;;;;;;;3.80;2.33;;;;;;;16.59;60.78;101195.25;5974983;29;20224;-58
2021/08/09 00:32:02;;;;;;;5.17;1.97;;;;;;;16.54;61.22;101192.75;5980119;29;20236;-59
2021/08/09 00:35:23;;;;;;;2.70;2.00;;;;;;;16.38;61.86;101191.44;5986770;29;20240;-59
2021/08/09 00:38:45;;;;;;;3.10;2.20;;;;;;;16.57;61.41;101202.31;5989391;29;20658;-59
2021/08/09 00:42:07;;;;;;;3.27;1.67;;;;;;;16.57;61.36;101192.66;5991693;29;20235;-59
2021/08/09 00:45:31;;;;;;;2.70;1.87;;;;;;;16.43;62.04;101193.03;5984985;29;20251;-59
2021/08/09 00:48:52;;;;;;;3.47;1.97;;;;;;;16.08;63.03;101207.97;5973044;29;20256;-59
2021/08/09 00:52:13;;;;;;;8.03;2.53;;;;;;;16.11;63.32;101199.13;5984737;29;20614;-59
2021/08/09 00:55:36;;;;;;;4.77;2.17;;;;;;;16.16;63.27;101204.28;5990437;29;20239;-59
2021/08/09 00:58:58;;;;;;;2.13;1.87;;;;;;;16.06;63.50;101211.53;5991502;29;20255;-59
2021/08/09 01:02:22;;;;;;;3.90;1.97;;;;;;;16.07;63.63;101197.50;5974902;29;20650;-59
2021/08/09 01:05:43;;;;;;;5.33;2.27;;;;;;;16.21;63.03;101200.66;5977674;29;20248;-59
2021/08/09 01:09:14;;;;;;;3.97;3.00;;;;;;;16.27;63.20;101207.50;5987549;29;20227;-59
2021/08/09 01:12:47;;;;;;;2.13;1.97;;;;;;;16.57;62.03;101208.41;5988486;29;20330;-59
2021/08/09 01:16:11;;;;;;;3.50;2.03;;;;;;;16.66;61.78;101208.16;5986712;29;20235;-58
2021/08/09 01:19:44;;;;;;;3.63;2.23;;;;;;;16.26;62.96;101198.72;5975146;29;20518;-60
2021/08/09 01:23:20;;;;;;;3.67;2.90;;;;;;;16.06;63.52;101195.78;5991645;29;20236;-59
2021/08/09 01:26:50;;;;;;;2.40;2.20;;;;;;;16.31;63.24;101194.22;5978211;29;20280;-59
2021/08/09 01:30:13;;;;;;;4.83;3.20;;;;;;;16.51;62.46;101209.44;5982914;29;20556;-60
2021/08/09 01:33:36;;;;;;;4.63;2.00;;;;;;;16.69;62.25;101208.09;5990188;29;20871;-61
2021/08/09 01:37:00;;;;;;;4.50;2.53;;;;;;;16.76;61.97;101216.66;5980693;29;20236;-60
2021/08/09 01:40:26;;;;;;;4.13;2.37;;;;;;;16.66;62.12;101213.44;5984679;29;20868;-60
2021/08/09 01:43:49;;;;;;;4.63;2.37;;;;;;;16.65;62.25;101213.47;5980251;29;20239;-60
2021/08/09 01:47:12;;;;;;;5.70;2.77;;;;;;;16.77;61.79;101204.38;5990567;29;20334;-59
2021/08/09 01:50:34;;;;;;;3.13;2.47;;;;;;;16.74;61.95;101205.31;5985145;29;20726;-60
2021/08/09 01:53:57;;;;;;;3.50;2.50;;;;;;;16.33;63.21;101202.94;5969107;29;20236;-58
2021/08/09 01:57:19;;;;;;;2.60;2.37;;;;;;;16.18;63.65;101205.09;5972876;29;20495;-59
2021/08/09 02:00:42;;;;;;;3.40;2.53;;;;;;;16.44;62.91;101202.66;5971184;29;20232;-59
2021/08/09 02:04:04;;;;;;;2.60;2.30;;;;;;;16.61;62.36;101204.78;5987811;29;20240;-61
2021/08/09 02:07:27;;;;;;;4.43;2.67;;;;;;;15.99;64.34;101204.72;5975815;29;20244;-59
2021/08/09 02:10:58;;;;;;;5.07;3.10;;;;;;;16.41;63.41;101207.13;5976751;29;20243;-59
2021/08/09 02:14:21;;;;;;;5.63;2.60;;;;;;;16.44;63.32;101217.53;5962218;29;20255;-60
2021/08/09 02:17:49;;;;;;;4.23;2.87;;;;;;;16.21;63.83;101221.66;5989262;29;20240;-58
2021/08/09 02:21:15;;;;;;;2.40;2.00;;;;;;;16.15;63.92;101224.47;5976235;29;20243;-59
2021/08/09 02:24:45;;;;;;;5.50;2.40;;;;;;;16.53;62.75;101225.19;5980462;29;20239;-59
2021/08/09 02:28:14;;;;;;;3.20;2.30;;;;;;;16.62;62.68;101231.97;5992860;29;20235;-60
2021/08/09 02:31:38;;;;;;;2.77;2.33;;;;;;;16.25;63.71;101223.31;5966865;29;20611;-59
2021/08/09 02:35:02;;;;;;;6.67;3.53;;;;;;;16.01;64.26;101239.69;5971206;29;20248;-58
2021/08/09 02:38:24;;;;;;;3.37;2.70;;;;;;;16.30;63.41;101229.31;5988319;29;20240;-60
2021/08/09 02:41:46;;;;;;;2.87;2.17;;;;;;;16.66;62.31;101231.84;5971657;29;20244;-61
2021/08/09 02:45:09;;;;;;;3.33;2.27;;;;;;;16.29;63.25;101238.09;5992431;29;20240;-58
2021/08/09 02:48:31;;;;;;;3.97;2.60;;;;;;;16.14;64.17;101236.69;5973114;29;20244;-58
2021/08/09 02:51:53;;;;;;;4.77;2.30;;;;;;;16.53;62.74;101228.66;5973124;29;20737;-57
2021/08/09 02:55:19;;;;;;;4.53;2.57;;;;;;;16.18;63.79;101240.13;5977062;29;20240;-58
2021/08/09 02:58:41;;;;;;;8.87;2.63;;;;;;;16.36;63.46;101240.53;5989030;29;20248;-59
2021/08/09 03:02:04;;;;;;;3.63;2.10;;;;;;;16.47;62.96;101233.25;5995466;29;20589;-58
2021/08/09 03:05:27;;;;;;;3.17;2.23;;;;;;;16.17;64.04;101245.41;5993610;29;20575;-59
2021/08/09 03:08:48;;;;;;;4.53;2.37;;;;;;;16.12;64.09;101235.03;5974136;29;20819;-60
2021/08/09 03:12:16;;;;;;;3.30;2.03;;;;;;;16.03;64.35;101243.13;5976192;29;20236;-60
2021/08/09 03:15:38;;;;;;;4.07;2.77;;;;;;;16.23;63.78;101240.03;5975027;29;20339;-59
2021/08/09 03:19:00;;;;;;;3.17;2.50;;;;;;;16.14;64.14;101241.97;5973584;29;20246;-60
2021/08/09 03:22:21;;;;;;;3.43;2.53;;;;;;;16.02;64.63;101241.44;5978203;29;20247;-60
2021/08/09 03:25:42;;;;;;;6.03;2.57;;;;;;;16.05;64.83;101239.59;5975314;29;20248;-59
2021/08/09 03:29:05;;;;;;;5.50;2.70;;;;;;;16.29;64.20;101239.84;5994974;29;20236;-58
2021/08/09 03:32:26;;;;;;;6.30;2.63;;;;;;;15.89;65.19;101246.09;5972103;29;20482;-59
2021/08/09 03:35:47;;;;;;;3.90;2.73;;;;;;;16.12;64.53;101235.88;5996042;29;20606;-59
2021/08/09 03:39:09;;;;;;;2.83;2.53;;;;;;;15.67;66.14;101248.34;5988077;29;20543;-59
2021/08/09 03:42:31;;;;;;;9.00;4.33;;;;;;;15.78;66.09;101243.75;5992927;29;20239;-59
2021/08/09 03:45:53;;;;;;;4.97;2.60;;;;;;;15.96;65.26;101246.84;5988214;29;20240;-59
2021/08/09 03:49:15;;;;;;;4.00;2.90;;;;;;;15.90;65.45;101243.44;5977353;29;20240;-59
2021/08/09 03:52:36;;;;;;;5.37;2.73;;;;;;;15.92;65.50;101244.28;6000952;29;20331;-60
2021/08/09 03:55:57;;;;;;;4.37;3.00;;;;;;;16.03;65.22;101249.28;5970178;29;20236;-60
2021/08/09 03:59:18;;;;;;;6.97;3.17;;;;;;;16.17;64.52;101253.28;5974383;29;20252;-58
2021/08/09 04:02:40;;;;;;;6.30;2.90;;;;;;;15.71;66.40;101257.88;5976044;29;20292;-60
2021/08/09 04:06:05;;;;;;;6.97;2.83;;;;;;;15.71;66.18;101257.88;5991177;29;20236;-59
2021/08/09 04:09:26;;;;;;;4.87;2.50;;;;;;;16.10;65.14;101257.84;5973241;29;20239;-60
2021/08/09 04:12:47;;;;;;;5.03;2.90;;;;;;;15.72;66.22;101259.59;5978847;29;20639;-59
2021/08/09 04:16:08;;;;;;;5.33;3.60;;;;;;;15.62;66.59;101268.59;5975547;29;20236;-59
2021/08/09 04:19:31;;;;;;;3.03;2.63;;;;;;;15.79;66.12;101271.72;5974388;29;20720;-60
2021/08/09 04:22:52;;;;;;;6.07;2.93;;;;;;;15.82;66.32;101271.66;5979586;29;20232;-59
2021/08/09 04:26:15;;;;;;;3.30;2.83;;;;;;;16.05;65.33;101265.84;5995667;29;20247;-59
2021/08/09 04:29:36;;;;;;;6.40;2.70;;;;;;;15.72;66.35;101275.34;5998067;29;20243;-60
2021/08/09 04:32:57;;;;;;;5.23;2.70;;;;;;;15.93;65.82;101279.28;5990044;29;20235;-60
2021/08/09 04:36:19;;;;;;;7.47;4.00;;;;;;;16.21;64.85;101271.59;5972476;29;20357;-59
2021/08/09 04:39:41;;;;;;;7.50;4.23;;;;;;;15.74;66.19;101279.72;5971980;29;20235;-60
2021/08/09 04:43:04;;;;;;;6.00;3.67;;;;;;;15.92;65.71;101283.66;5974458;29;20239;-58
2021/08/09 04:46:24;;;;;;;4.70;3.33;;;;;;;16.07;65.22;101279.81;5977378;29;20240;-59
2021/08/09 04:49:46;;;;;;;6.50;3.23;;;;;;;16.21;64.85;101284.72;5974070;29;20323;-59
2021/08/09 04:53:10;;;;;;;7.60;3.30;;;;;;;16.10;65.34;101292.84;5971657;29;20670;-59
2021/08/09 04:56:31;;;;;;;7.07;3.37;;;;;;;15.84;65.96;101290.88;5976759;29;20240;-59
2021/08/09 04:59:52;;;;;;;3.70;2.77;;;;;;;16.06;65.58;101300.88;5984417;29;20247;-60
2021/08/09 05:03:13;;;;;;;6.53;3.73;;;;;;;16.36;64.42;101299.22;5978616;29;20490;-59
2021/08/09 05:06:35;;;;;;;5.83;3.07;;;;;;;15.91;65.83;101302.94;5993174;29;20243;-60
2021/08/09 05:09:58;;;;;;;4.63;3.00;;;;;;;15.98;65.52;101308.06;5995287;29;20239;-61
2021/08/09 05:13:19;;;;;;;4.87;2.70;;;;;;;15.85;65.95;101303.09;5975574;29;20331;-60
2021/08/09 05:16:41;;;;;;;3.90;2.87;;;;;;;16.12;65.09;101308.59;5988586;29;20278;-60
2021/08/09 05:20:02;;;;;;;3.10;2.80;;;;;;;16.03;65.60;101311.44;5971050;29;20240;-59
2021/08/09 05:23:23;;;;;;;6.03;3.43;;;;;;;16.27;64.79;101310.84;5966598;29;20243;-60
2021/08/09 05:26:45;;;;;;;5.87;3.83;;;;;;;15.93;65.34;101335.28;5976066;29;20239;-60
2021/08/09 05:30:06;;;;;;;7.43;3.57;;;;;;;16.07;65.40;101313.97;5974625;29;20239;-58
2021/08/09 05:33:30;;;;;;;4.13;2.60;;;;;;;16.56;64.10;101322.41;5967378;29;20232;-59
2021/08/09 05:36:51;;;;;;;4.60;2.87;;;;;;;16.27;64.72;101318.72;5969274;29;20506;-59
2021/08/09 05:40:12;;;;;;;5.57;3.70;;;;;;;16.66;63.75;101323.00;5969277;29;20239;-58
2021/08/09 05:43:35;;;;;;;5.70;3.17;;;;;;;16.20;64.89;101321.53;5989772;29;20236;-59
2021/08/09 05:46:56;;;;;;;7.00;3.43;;;;;;;16.74;63.57;101321.88;5987027;29;20259;-59
2021/08/09 05:50:18;;;;;;;6.60;2.70;;;;;;;16.40;64.68;101324.56;5975769;29;20263;-57
2021/08/09 05:53:53;;;;;;;3.60;2.57;;;;;;;16.46;64.18;101320.88;5978538;29;20729;-59
2021/08/09 05:57:14;;;;;;;5.50;3.10;;;;;;;16.34;64.96;101322.06;5981927;29;20622;-57
2021/08/09 06:00:36;;;;;;;4.13;2.60;;;;;;;17.03;62.67;101330.78;5989696;29;20622;-58
2021/08/09 06:04:01;;;;;;;5.03;3.47;;;;;;;16.79;63.11;101328.78;5973560;29;20537;-59
2021/08/09 06:07:22;;;;;;;4.07;3.17;;;;;;;16.88;62.94;101331.22;5970863;29;20656;-58
2021/08/09 06:10:56;;;;;;;7.43;3.47;;;;;;;17.00;62.64;101328.28;5993895;29;20244;-60
2021/08/09 06:14:17;;;;;;;4.13;2.83;;;;;;;16.64;63.70;101341.47;5988099;29;20235;-58
2021/08/09 06:17:41;;;;;;;5.87;2.70;;;;;;;16.93;62.80;101331.97;5973272;29;20614;-59
2021/08/09 06:21:02;;;;;;;3.97;2.37;;;;;;;17.02;62.16;101321.19;5977454;29;20626;-60
2021/08/09 06:24:23;;;;;;;5.67;3.47;;;;;;;17.10;62.41;101334.13;5994538;29;20247;-60
2021/08/09 06:27:46;;;;;;;11.83;3.33;;;;;;;17.12;62.36;101327.91;5992641;29;20236;-60
2021/08/09 06:31:07;;;;;;;4.53;2.67;;;;;;;17.11;62.31;101322.69;5997506;29;20235;-60
2021/08/09 06:34:30;;;;;;;7.57;3.97;;;;;;;17.19;61.97;101327.72;5964698;29;20604;-59
2021/08/09 06:37:51;;;;;;;8.63;3.63;;;;;;;17.37;61.48;101334.22;5993134;29;20235;-59
2021/08/09 06:41:12;;;;;;;5.63;3.00;;;;;;;17.16;62.29;101318.16;5973551;29;20243;-59
2021/08/09 06:44:38;;;;;;;5.73;2.27;;;;;;;16.93;63.21;101339.84;5982923;29;20239;-59
2021/08/09 06:48:01;;;;;;;4.93;2.93;;;;;;;17.14;62.48;101335.78;5975739;29;20651;-59
2021/08/09 06:51:24;;;;;;;5.50;3.23;;;;;;;16.84;63.46;101337.47;6002044;29;20252;-59
2021/08/09 06:54:45;;;;;;;7.80;3.67;;;;;;;17.41;62.18;101344.66;5975532;29;20232;-59
2021/08/09 06:58:12;;;;;;;5.65;3.00;;;;;;;17.76;60.87;101339.22;5991716;29;20313;-59
2021/08/09 07:01:33;;;;;;;6.40;4.18;;;;;;;17.18;62.85;101342.66;5991361;29;20331;-59
2021/08/09 07:04:53;;;;;;;5.63;3.10;;;;;;;17.27;62.71;101346.78;5986696;29;20224;-59
2021/08/09 07:08:16;;;;;;;9.50;3.70;;;;;;;17.42;62.42;101346.34;5965219;29;20521;-60
2021/08/09 07:11:39;;;;;;;7.50;3.10;;;;;;;17.63;61.80;101349.28;5977442;29;20235;-60
2021/08/09 07:15:00;;;;;;;6.10;3.73;;;;;;;17.86;61.10;101346.81;5969379;29;20232;-59
2021/08/09 07:18:21;;;;;;;4.70;3.13;;;;;;;17.75;61.10;101348.03;5968422;29;20245;-58
2021/08/09 07:21:43;;;;;;;5.20;2.97;;;;;;;17.71;61.55;101347.25;5995200;29;20240;-60
2021/08/09 07:25:08;;;;;;;7.27;3.23;;;;;;;17.46;62.67;101340.09;5990258;29;20263;-59
2021/08/09 07:28:30;;;;;;;11.80;4.00;;;;;;;17.41;62.51;101349.91;5972787;29;20255;-60
2021/08/09 07:31:51;;;;;;;7.60;3.97;;;;;;;17.99;61.06;101352.59;5970578;29;20253;-59
2021/08/09 07:35:13;;;;;;;4.70;3.47;;;;;;;17.78;61.54;101351.44;5978823;29;20239;-60
2021/08/09 07:38:34;;;;;;;4.77;2.80;;;;;;;17.78;61.75;101348.81;5988766;29;20244;-60
2021/08/09 07:41:57;;;;;;;7.73;3.20;;;;;;;17.41;63.08;101349.91;5985546;29;20690;-59
2021/08/09 07:45:18;;;;;;;6.63;3.37;;;;;;;17.95;61.29;101345.69;5988366;29;20951;-60
2021/08/09 07:48:40;;;;;;;4.45;2.42;;;;;;;18.02;61.51;101354.25;5972560;29;20251;-59
2021/08/09 07:52:03;;;;;;;6.45;3.45;;;;;;;18.16;61.38;101352.03;5978167;29;20251;-59
2021/08/09 07:55:25;;;;;;;7.10;3.15;;;;;;;17.50;62.78;101360.16;5963906;29;20239;-60
2021/08/09 07:58:48;;;;;;;5.03;3.28;;;;;;;17.78;61.74;101358.50;5963460;29;20589;-59
2021/08/09 08:02:10;;;;;;;3.75;3.05;;;;;;;17.77;62.06;101365.50;5968336;29;20267;-59
2021/08/09 08:05:31;;;;;;;8.73;3.47;;;;;;;17.44;63.07;101359.47;5953764;29;20240;-59
2021/08/09 08:08:52;;;;;;;6.60;4.20;;;;;;;17.50;63.12;101352.25;5986333;29;20251;-60
2021/08/09 08:12:13;;;;;;;9.02;3.92;;;;;;;18.01;61.59;101353.41;5967339;29;20248;-59
2021/08/09 08:15:37;;;;;;;8.98;4.35;;;;;;;18.34;60.34;101363.78;5985132;29;20251;-60
2021/08/09 08:18:58;;;;;;;4.38;3.10;;;;;;;18.31;60.20;101371.78;5973603;29;20244;-60
2021/08/09 08:22:19;;;;;;;5.45;3.00;;;;;;;18.35;60.44;101377.81;5988989;29;20244;-60
2021/08/09 08:25:41;;;;;;;12.05;3.80;;;;;;;18.32;60.08;101380.53;5996605;29;20511;-59
2021/08/09 08:29:02;;;;;;;7.82;3.03;;;;;;;18.42;60.13;101379.34;5961024;29;20247;-58
2021/08/09 08:32:24;;;;;;;10.73;4.40;;;;;;;18.30;60.28;101377.97;5971566;29;20622;-60
2021/08/09 08:35:45;;;;;;;7.38;3.50;;;;;;;18.88;58.30;101377.78;5988498;29;20268;-60
2021/08/09 08:39:10;;;;;;;9.27;3.63;;;;;;;18.48;59.48;101392.31;5986131;29;20248;-59
2021/08/09 08:42:32;;;;;;;5.03;2.97;;;;;;;18.93;58.07;101378.50;5963112;29;20252;-61
2021/08/09 08:45:57;;;;;;;5.53;3.20;;;;;;;19.09;57.75;101378.81;5971693;29;20243;-60
2021/08/09 08:49:23;;;;;;;4.15;2.75;;;;;;;18.77;58.20;101404.53;5974978;29;20253;-59
2021/08/09 08:52:47;;;;;;;6.90;3.00;;;;;;;19.36;56.57;101392.81;5986715;29;20259;-59
2021/08/09 08:56:09;;;;;;;6.18;3.65;;;;;;;19.27;56.14;101404.56;5949425;29;20253;-61
2021/08/09 08:59:31;;;;;;;6.55;3.38;;;;;;;19.42;55.44;101397.00;5964644;29;20477;-60
2021/08/09 09:02:52;;;;;;;6.95;3.67;;;;;;;19.98;54.31;101395.81;5970290;29;20626;-57
2021/08/09 09:06:14;;;;;;;6.07;2.88;;;;;;;19.68;55.01;101399.53;5971791;29;20255;-59
2021/08/09 09:09:37;;;;;;;9.95;3.10;;;;;;;19.21;55.00;101410.09;5967895;29;20670;-59
2021/08/09 09:13:09;;;;;;;7.18;2.90;;;;;;;19.59;54.53;101399.03;5964979;29;20233;-60
2021/08/09 09:16:44;;;;;;;4.40;2.67;;;;;;;18.89;56.06;101403.28;5971732;29;20240;-60
2021/08/09 09:20:23;;;;;;;4.10;2.65;;;;;;;19.42;55.16;101400.50;5964955;29;20240;-59
2021/08/09 09:23:45;;;;;;;7.00;3.80;;;;;;;19.55;54.70;101410.63;5964157;29;20835;-59
2021/08/09 09:27:09;;;;;;;6.70;3.15;;;;;;;19.50;54.63;101415.22;5971750;29;20649;-59
2021/08/09 09:30:31;;;;;;;3.97;2.33;;;;;;;19.83;54.10;101418.38;5970856;29;20336;-59
2021/08/09 09:33:52;;;;;;;6.05;3.42;;;;;;;20.22;53.00;101421.28;5965573;29;20240;-60
2021/08/09 09:37:23;;;;;;;8.00;4.72;;;;;;;20.57;51.91;101428.69;5967188;29;20626;-59
2021/08/09 09:40:46;;;;;;;4.05;2.35;;;;;;;20.25;52.32;101421.13;5972373;29;20235;-59
2021/08/09 09:44:07;;;;;;;4.88;2.35;;;;;;;20.50;50.91;101420.16;5971720;29;20610;-57
2021/08/09 09:47:30;;;;;;;3.88;2.45;;;;;;;20.12;51.18;101422.53;5956720;29;20642;-59
2021/08/09 09:50:51;;;;;;;6.80;2.20;;;;;;;20.49;50.38;101421.09;5970219;29;20251;-60
2021/08/09 09:54:12;;;;;;;6.53;2.55;;;;;;;20.38;49.35;101429.44;5970388;29;20232;-59
2021/08/09 09:57:35;;;;;;;5.82;2.70;;;;;;;20.94;48.54;101427.19;5974490;29;20244;-60
2021/08/09 10:00:57;;;;;;;5.55;2.08;;;;;;;20.82;46.93;101441.78;5971953;29;20330;-58
2021/08/09 10:04:18;;;;;;;2.45;1.50;;;;;;;21.15;45.98;101428.03;5973467;29;20240;-60
2021/08/09 10:07:42;;;;;;;5.45;2.50;;;;;;;21.13;46.00;101424.59;5979733;29;20237;-60
2021/08/09 10:11:05;;;;;;;4.10;2.13;;;;;;;20.97;45.59;101429.69;5970884;29;20240;-60
2021/08/09 10:14:28;;;;;;;5.60;2.35;;;;;;;21.15;45.81;101423.63;5977070;29;20655;-59
2021/08/09 10:17:51;;;;;;;4.47;2.03;;;;;;;22.12;43.61;101445.75;5971575;29;20558;-60
2021/08/09 10:21:12;;;;;;;2.78;1.85;;;;;;;21.17;44.80;101431.47;5977246;29;20244;-60
2021/08/09 10:24:38;;;;;;;4.47;1.92;;;;;;;20.58;45.28;101444.50;5972159;29;20326;-60
2021/08/09 10:28:03;;;;;;;3.17;1.73;;;;;;;20.64;46.31;101443.44;5977342;29;20319;-58
2021/08/09 10:31:28;;;;;;;3.60;1.75;;;;;;;21.46;45.21;101434.66;5979495;29;20336;-60
2021/08/09 10:34:49;;;;;;;3.25;1.63;;;;;;;21.04;45.03;101442.59;5974335;29;20228;-58
2021/08/09 10:38:11;;;;;;;3.25;1.70;;;;;;;21.23;45.00;101431.22;5977247;29;20616;-61
2021/08/09 10:41:37;;;;;;;9.60;2.42;;;;;;;21.38;44.48;101441.16;5979565;29;20255;-59
2021/08/09 10:45:04;;;;;;;5.45;1.73;;;;;;;21.16;44.66;101445.66;5986729;29;20580;-61
2021/08/09 10:48:47;;;;;;;2.28;1.92;;;;;;;22.20;43.15;101453.34;5974391;29;20279;-61
2021/08/09 10:52:11;;;;;;;3.97;1.73;;;;;;;21.66;43.72;101450.53;5996643;29;20243;-60
2021/08/09 10:55:42;;;;;;;4.07;1.60;;;;;;;21.07;44.74;101454.00;5977220;29;20240;-61
2021/08/09 10:59:03;;;;;;;3.33;2.13;;;;;;;21.39;44.50;101464.06;5980645;29;20251;-60
2021/08/09 11:02:27;;;;;;;5.53;2.40;;;;;;;21.59;44.63;101459.69;5978946;29;21178;-60
2021/08/09 11:05:49;;;;;;;4.40;1.52;;;;;;;21.80;44.09;101458.69;5979644;29;20229;-60
2021/08/09 11:09:41;;;;;;;2.88;1.83;;;;;;;22.29;43.63;101454.72;5977505;29;20504;-60
2021/08/09 11:13:01;;;;;;;3.88;1.83;;;;;;;21.76;44.42;101462.44;5981382;29;20247;-60
2021/08/09 11:16:30;;;;;;;4.50;2.00;;;;;;;21.67;44.99;101457.53;5976571;29;20264;-60
2021/08/09 11:19:52;;;;;;;4.50;2.63;;;;;;;21.29;45.12;101451.28;5975363;29;20235;-60
2021/08/09 11:23:16;;;;;;;4.40;2.97;;;;;;;22.10;43.93;101460.88;5973037;29;20247;-60
2021/08/09 11:26:38;;;;;;;2.63;2.10;;;;;;;21.58;44.89;101457.97;5976142;29;20235;-60
2021/08/09 11:29:59;;;;;;;4.10;1.77;;;;;;;21.64;44.63;101457.69;5978884;29;20267;-59
2021/08/09 11:33:26;;;;;;;2.85;1.50;;;;;;;21.71;44.14;101469.72;5977202;29;20240;-59
2021/08/09 11:36:47;;;;;;;2.60;1.35;;;;;;;21.36;45.17;101461.53;5979279;29;20231;-60
2021/08/09 11:40:11;;;;;;;4.60;1.92;;;;;;;21.03;44.77;101477.09;5973224;29;20240;-59
2021/08/09 11:43:34;;;;;;;2.55;2.00;;;;;;;21.50;44.33;101473.34;5975438;29;20232;-59
2021/08/09 11:46:55;;;;;;;4.22;2.20;;;;;;;21.61;44.56;101468.41;5971728;29;20756;-59
2021/08/09 11:50:16;;;;;;;2.47;1.40;;;;;;;21.36;44.43;101464.16;5970284;29;20236;-59
2021/08/09 11:53:39;;;;;;;6.70;1.65;;;;;;;21.23;44.71;101478.91;5979459;29;20508;-60
2021/08/09 11:57:01;;;;;;;3.67;1.80;;;;;;;21.45;44.39;101478.00;5976464;29;20240;-60
2021/08/09 12:00:24;;;;;;;2.33;1.58;;;;;;;20.60;46.41;101495.59;5980611;29;20794;-60
2021/08/09 12:04:01;;;;;;;4.47;1.80;;;;;;;21.23;44.65;101489.50;5979259;29;20235;-60
2021/08/09 12:07:24;;;;;;;3.85;1.85;;;;;;;20.95;44.88;101490.66;5973193;29;20239;-59
2021/08/09 12:10:45;;;;;;;5.70;2.20;;;;;;;20.89;45.77;101485.63;5973482;29;20268;-58
2021/08/09 12:14:11;;;;;;;5.03;1.63;;;;;;;20.88;45.16;101490.97;5975171;29;20252;-60
2021/08/09 12:17:32;;;;;;;3.45;2.03;;;;;;;21.35;45.36;101486.31;5975522;29;20506;-60
2021/08/09 12:21:08;;;;;;;3.80;1.55;;;;;;;21.24;45.05;101485.91;6001895;29;20284;-60
2021/08/09 12:24:30;;;;;;;2.10;1.88;;;;;;;20.61;46.16;101499.13;5979950;29;21014;-59
2021/08/09 12:28:00;;;;;;;6.68;1.98;;;;;;;21.13;45.65;101493.44;5979147;29;20244;-59
2021/08/09 12:31:34;;;;;;;3.15;1.58;;;;;;;20.81;46.26;101493.88;5978043;29;20518;-59
2021/08/09 12:34:55;;;;;;;3.50;1.90;;;;;;;21.15;44.95;101507.47;5980063;29;20567;-60
2021/08/09 12:38:17;;;;;;;3.85;2.53;;;;;;;20.60;46.59;101500.03;5977585;29;20508;-59
2021/08/09 12:41:39;;;;;;;4.85;2.20;;;;;;;21.51;44.70;101497.13;5978189;29;20244;-60
2021/08/09 12:45:00;;;;;;;2.38;1.40;;;;;;;22.61;42.51;101507.09;5975330;29;20240;-61
2021/08/09 12:48:23;;;;;;;4.65;1.90;;;;;;;24.16;39.53;101490.25;5972947;29;20248;-61
2021/08/09 12:51:43;;;;;;;4.95;1.10;;;;;;;25.15;37.09;101504.09;5971632;29;20235;-58
2021/08/09 12:55:05;;;;;;;3.72;2.47;;;;;;;23.68;38.98;101509.69;5978157;29;20239;-60
2021/08/09 12:58:26;;;;;;;5.10;2.08;;;;;;;22.99;40.83;101491.06;5977616;29;20240;-60
2021/08/09 13:01:47;;;;;;;4.68;1.70;;;;;;;23.45;40.63;101479.88;5970676;29;20241;-58
2021/08/09 13:05:10;;;;;;;5.18;1.70;;;;;;;22.61;42.04;101493.81;5975275;29;20244;-59
2021/08/09 13:08:32;;;;;;;4.43;2.15;;;;;;;22.03;43.41;101486.81;5971195;29;20322;-60
2021/08/09 13:11:54;;;;;;;6.72;2.05;;;;;;;22.02;43.90;101484.22;5978126;29;20239;-59
2021/08/09 13:15:14;;;;;;;3.13;1.65;;;;;;;21.63;44.92;101479.81;5977850;29;20232;-59
2021/08/09 13:18:35;;;;;;;3.40;1.63;;;;;;;23.39;41.18;101486.34;5973200;29;20247;-60
2021/08/09 13:21:58;;;;;;;6.47;2.50;;;;;;;23.33;41.05;101485.84;5977077;29;20654;-60
2021/08/09 13:25:18;;;;;;;6.43;2.40;;;;;;;20.74;47.20;101497.69;5974117;29;20274;-60
2021/08/09 13:28:40;;;;;;;3.25;1.73;;;;;;;22.55;43.57;101478.19;5976897;29;20243;-59
2021/08/09 13:32:01;;;;;;;4.03;1.77;;;;;;;23.27;42.84;101476.38;5970725;29;20330;-60
2021/08/09 13:35:22;;;;;;;4.38;2.15;;;;;;;22.86;43.04;101474.03;5968534;29;20243;-61
2021/08/09 13:38:44;;;;;;;4.90;1.55;;;;;;;22.22;45.20;101484.16;5977251;29;20240;-59
2021/08/09 13:42:05;;;;;;;2.65;1.85;;;;;;;22.76;44.15;101478.06;5978987;29;20244;-60
2021/08/09 13:45:29;;;;;;;4.13;2.13;;;;;;;21.99;45.75;101471.97;5967970;29;20231;-61
2021/08/09 13:48:50;;;;;;;4.13;1.95;;;;;;;21.61;46.89;101473.72;5979118;29;20244;-59
2021/08/09 13:52:12;;;;;;;5.20;2.38;;;;;;;22.53;45.33;101480.06;5972313;29;20327;-59
2021/08/09 13:55:34;;;;;;;3.80;1.90;;;;;;;21.14;47.36;101489.88;5976296;29;20243;-60
2021/08/09 13:58:54;;;;;;;4.85;2.60;;;;;;;21.54;46.65;101474.91;5971810;29;20240;-60
2021/08/09 14:02:15;;;;;;;2.80;1.48;;;;;;;20.86;48.30;101472.53;5963771;29;20524;-59
2021/08/09 14:05:38;;;;;;;3.75;1.88;;;;;;;21.10;47.63;101470.63;5972764;29;20330;-60
2021/08/09 14:08:59;;;;;;;4.82;2.15;;;;;;;21.43;46.85;101467.44;5976621;29;20520;-60
2021/08/09 14:12:21;;;;;;;3.83;2.42;;;;;;;21.55;46.66;101468.69;5978178;29;20243;-59
2021/08/09 14:15:42;;;;;;;4.80;2.00;;;;;;;21.67;46.35;101462.84;5983962;29;20239;-60
2021/08/09 14:19:05;;;;;;;4.50;1.92;;;;;;;22.37;45.05;101465.81;5992890;29;20248;-59
2021/08/09 14:22:27;;;;;;;4.78;2.28;;;;;;;21.95;45.67;101469.53;5980594;29;20240;-59
2021/08/09 14:25:48;;;;;;;3.95;1.70;;;;;;;22.68;44.26;101464.31;5977987;29;20236;-59
2021/08/09 14:29:11;;;;;;;6.45;2.45;;;;;;;22.46;45.34;101464.50;5974277;29;20886;-59
2021/08/09 14:32:34;;;;;;;4.60;2.28;;;;;;;22.41;45.59;101470.03;5990331;29;20417;-60
2021/08/09 14:35:56;;;;;;;2.80;2.05;;;;;;;22.19;45.65;101459.56;5998544;29;20240;-62
2021/08/09 14:39:19;;;;;;;5.57;1.83;;;;;;;22.27;45.04;101472.50;5981770;29;20518;-59
2021/08/09 14:42:49;;;;;;;2.42;1.95;;;;;;;22.21;45.07;101458.53;5980091;29;20322;-61
2021/08/09 14:46:12;;;;;;;3.08;1.60;;;;;;;22.70;44.08;101446.50;5978051;29;20236;-60
2021/08/09 14:49:33;;;;;;;2.75;1.77;;;;;;;23.34;42.96;101445.03;5974749;29;20236;-61
2021/08/09 14:52:55;;;;;;;6.72;2.17;;;;;;;23.83;42.66;101450.41;5995226;29;20538;-60
2021/08/09 14:56:17;;;;;;;5.78;1.88;;;;;;;23.62;42.43;101443.56;5973863;29;20599;-60
2021/08/09 14:59:46;;;;;;;7.85;1.95;;;;;;;22.36;44.12;101445.53;5988355;29;20235;-59
2021/08/09 15:03:10;;;;;;;3.97;2.03;;;;;;;22.41;43.69;101448.78;5969774;29;20236;-59
2021/08/09 15:06:49;;;;;;;2.38;1.50;;;;;;;23.44;42.30;101437.41;5977668;29;20239;-59
2021/08/09 15:10:13;;;;;;;4.18;1.83;;;;;;;22.59;43.60;101434.63;5997269;29;20232;-59
2021/08/09 15:13:33;;;;;;;4.32;1.92;;;;;;;22.53;43.79;101439.41;5981467;29;20240;-60
2021/08/09 15:16:54;;;;;;;2.60;1.98;;;;;;;22.95;43.40;101444.34;5971067;29;20330;-60
2021/08/09 15:20:16;;;;;;;2.95;1.92;;;;;;;22.56;43.57;101437.44;5974160;29;20236;-59
2021/08/09 15:23:37;;;;;;;2.97;1.73;;;;;;;22.69;44.12;101436.84;5976453;29;20264;-60
2021/08/09 15:26:58;;;;;;;4.70;2.20;;;;;;;21.83;45.54;101447.97;5977350;29;20243;-60
2021/08/09 15:30:19;;;;;;;3.90;2.08;;;;;;;22.36;44.54;101441.06;5979389;29;20240;-60
2021/08/09 15:33:40;;;;;;;2.90;1.80;;;;;;;22.07;44.79;101445.09;5977706;29;20236;-60
2021/08/09 15:37:03;;;;;;;6.18;2.15;;;;;;;22.61;43.35;101438.06;5979408;29;20228;-59
2021/08/09 15:40:24;;;;;;;4.13;2.03;;;;;;;22.26;44.79;101449.56;5971732;29;20235;-60
2021/08/09 15:43:45;;;;;;;4.00;2.33;;;;;;;22.89;42.87;101441.13;5976580;29;20239;-58